createdAt,value
2023-03-25T00:00:24.653Z,21.10
2023-03-25T00:05:26.566Z,22.23
2023-03-25T00:10:28.527Z,26.80
2023-03-25T00:15:30.155Z,19.88
2023-03-25T00:20:32.454Z,19.55
2023-03-25T00:25:34.983Z,26.95
2023-03-25T00:30:37.738Z,20.40
2023-03-25T00:35:44.982Z,22.63
2023-03-25T00:40:49.414Z,20.17
2023-03-25T00:45:55.019Z,30.45
2023-03-25T00:50:56.480Z,29.67
2023-03-25T00:55:58.305Z,30.35
2023-03-25T01:00:59.694Z,29.55
2023-03-25T01:06:01.126Z,20.23
2023-03-25T01:11:02.530Z,22.67
2023-03-25T01:16:06.622Z,27.27
2023-03-25T01:21:08.693Z,22.15
2023-03-25T01:26:10.465Z,26.85
2023-03-25T01:31:13.516Z,23.77
2023-03-25T01:36:14.964Z,26.92
2023-03-25T01:41:16.707Z,23.75
2023-03-25T01:46:19.829Z,21.30
2023-03-25T01:51:24.348Z,33.85
2023-03-25T01:56:27.419Z,29.20
2023-03-25T02:01:28.943Z,23.05
2023-03-25T02:06:53.939Z,26.50
2023-03-25T02:11:55.537Z,22.70
2023-03-25T02:17:15.545Z,24.90
2023-03-25T02:22:37.679Z,27.80
2023-03-25T02:27:47.595Z,25.77
2023-03-25T02:32:51.750Z,23.65
2023-03-25T02:38:06.486Z,22.48
2023-03-25T02:43:34.135Z,25.25
2023-03-25T02:48:56.092Z,22.90
2023-03-25T02:54:01.659Z,20.75
2023-03-25T02:59:04.313Z,29.55
2023-03-25T03:04:05.917Z,29.10
2023-03-25T03:09:27.297Z,26.20
2023-03-25T03:14:34.479Z,22.55
2023-03-25T03:19:41.753Z,29.38
2023-03-25T03:24:46.294Z,27.10
2023-03-25T03:29:49.428Z,29.10
2023-03-25T03:34:59.555Z,28.75
2023-03-25T03:40:02.118Z,27.58
2023-03-25T03:45:16.477Z,24.17
2023-03-25T03:50:20.372Z,27.40
2023-03-25T03:55:29.243Z,23.17
2023-03-25T04:00:42.021Z,37.07
2023-03-25T04:05:51.633Z,30.70
2023-03-25T04:15:55.049Z,27.77
2023-03-25T04:20:56.520Z,30.23
2023-03-25T04:25:58.159Z,34.25
2023-03-25T04:31:00.607Z,28.67
2023-03-25T04:36:03.660Z,30.50
2023-03-25T04:41:06.950Z,32.00
2023-03-25T04:46:12.539Z,28.38
2023-03-25T04:51:15.483Z,26.95
2023-03-25T04:56:18.072Z,30.10
2023-03-25T05:01:21.601Z,31.30
2023-03-25T05:06:25.396Z,27.63
2023-03-25T05:11:28.905Z,21.17
2023-03-25T05:16:30.347Z,26.17
2023-03-25T05:21:31.774Z,26.15
2023-03-25T05:26:34.620Z,30.23
2023-03-25T05:31:36.951Z,23.23
2023-03-25T05:36:38.371Z,29.58
2023-03-25T05:41:39.817Z,24.88
2023-03-25T05:46:41.210Z,26.92
2023-03-25T05:51:45.133Z,26.38
2023-03-25T05:56:46.761Z,24.05
2023-03-25T06:01:50.066Z,23.17
2023-03-25T06:06:51.434Z,19.90
2023-03-25T06:11:53.679Z,24.52
2023-03-25T06:16:56.945Z,21.50
2023-03-25T06:21:58.337Z,23.30
2023-03-25T06:26:59.729Z,24.70
2023-03-25T06:32:01.194Z,22.45
2023-03-25T06:37:02.633Z,24.00
2023-03-25T06:42:04.770Z,25.92
2023-03-25T06:47:06.748Z,20.08
2023-03-25T06:52:08.147Z,22.60
2023-03-25T06:57:09.605Z,19.08
2023-03-25T07:02:13.585Z,20.83
2023-03-25T07:07:15.301Z,21.00
2023-03-25T07:12:16.773Z,26.92
2023-03-25T07:17:18.440Z,21.85
2023-03-25T07:22:19.814Z,22.65
2023-03-25T07:27:21.247Z,17.00
2023-03-25T07:32:22.706Z,22.48
2023-03-25T07:37:24.198Z,23.33
2023-03-25T07:42:26.829Z,29.83
2023-03-25T07:47:28.337Z,20.88
2023-03-25T07:52:29.750Z,24.90
2023-03-25T07:57:31.176Z,16.48
2023-03-25T08:02:32.632Z,21.50
2023-03-25T08:07:34.259Z,26.65
2023-03-25T08:12:36.799Z,21.48
2023-03-25T08:17:39.133Z,26.83
2023-03-25T08:22:40.592Z,22.63
2023-03-25T08:27:41.996Z,21.05
2023-03-25T08:32:46.223Z,23.67
2023-03-25T08:37:48.253Z,20.88
2023-03-25T08:42:49.684Z,26.25
2023-03-25T08:47:51.076Z,24.20
2023-03-25T08:52:54.734Z,18.10
2023-03-25T08:57:56.285Z,21.20
2023-03-25T09:02:59.560Z,14.80
2023-03-25T09:08:01.117Z,23.48
2023-03-25T09:13:02.641Z,17.52
2023-03-25T09:18:04.763Z,21.30
2023-03-25T09:23:06.656Z,16.40
2023-03-25T09:28:08.044Z,15.75
2023-03-25T09:33:09.448Z,28.63
2023-03-25T09:38:11.117Z,24.65
2023-03-25T09:43:31.512Z,15.45
2023-03-25T09:53:34.329Z,21.85
2023-03-25T09:58:48.717Z,19.10
2023-03-25T10:03:54.984Z,22.50
2023-03-25T10:09:02.821Z,28.98
2023-03-25T10:14:11.921Z,18.05
2023-03-25T10:19:22.411Z,19.48
2023-03-25T10:24:27.337Z,18.88
2023-03-25T10:29:31.728Z,19.95
2023-03-25T10:34:36.192Z,18.08
2023-03-25T10:39:40.017Z,19.83
2023-03-25T10:44:41.508Z,20.10
2023-03-25T10:49:44.569Z,18.42
2023-03-25T10:54:48.157Z,24.00
2023-03-25T11:00:00.767Z,22.30
2023-03-25T11:05:05.088Z,20.48
2023-03-25T11:10:09.321Z,15.30
2023-03-25T11:15:14.850Z,21.33
2023-03-25T11:20:26.601Z,18.80
2023-03-25T11:25:32.676Z,21.20
2023-03-25T11:30:34.205Z,23.73
2023-03-25T11:35:43.499Z,23.58
2023-03-25T11:40:55.908Z,23.33
2023-03-25T11:46:07.195Z,15.75
2023-03-25T11:51:14.030Z,21.27
2023-03-25T11:56:17.719Z,21.92
2023-03-25T12:01:27.919Z,13.55
2023-03-25T12:06:30.029Z,16.55
2023-03-25T12:11:36.640Z,17.42
2023-03-25T12:16:44.166Z,21.17
2023-03-25T12:21:48.641Z,18.23
2023-03-25T12:26:53.133Z,21.83
2023-03-25T12:31:54.547Z,16.80
2023-03-25T12:37:01.938Z,20.48
2023-03-25T12:42:06.387Z,17.48
2023-03-25T12:47:10.590Z,19.25
2023-03-25T12:52:20.030Z,23.52
2023-03-25T12:57:39.668Z,20.20
2023-03-25T13:03:00.912Z,19.17
2023-03-25T13:08:12.497Z,18.13
2023-03-25T13:13:19.262Z,20.60
2023-03-25T13:18:20.947Z,17.33
2023-03-25T13:23:23.581Z,13.38
2023-03-25T13:28:38.205Z,16.27
2023-03-25T13:33:43.090Z,16.65
2023-03-25T13:38:52.437Z,18.63
2023-03-25T13:44:12.358Z,16.33
2023-03-25T13:49:16.933Z,11.48
2023-03-25T13:54:30.989Z,18.17
2023-03-25T14:00:01.808Z,14.43
2023-03-25T14:05:06.313Z,11.75
2023-03-25T14:10:26.584Z,12.10
2023-03-25T14:15:30.269Z,16.77
2023-03-25T14:20:36.047Z,13.43
2023-03-25T14:25:46.737Z,11.60
2023-03-25T14:31:11.405Z,18.35
2023-03-25T14:36:13.051Z,19.85
2023-03-25T14:41:14.541Z,18.73
2023-03-25T14:46:21.652Z,18.05
2023-03-25T14:51:26.015Z,17.23
2023-03-25T14:56:35.654Z,18.10
2023-03-25T15:01:37.692Z,15.13
2023-03-25T15:06:39.213Z,13.15
2023-03-25T15:11:44.810Z,13.20
2023-03-25T15:16:47.410Z,12.63
2023-03-25T15:21:58.052Z,18.58
2023-03-25T15:27:01.905Z,17.95
2023-03-25T15:32:03.302Z,15.43
2023-03-25T15:37:15.631Z,20.75
2023-03-25T15:42:27.927Z,19.15
2023-03-25T15:47:34.631Z,20.98
2023-03-25T15:52:39.147Z,11.88
2023-03-25T15:57:44.164Z,9.98
2023-03-25T16:02:48.583Z,20.35
2023-03-25T16:07:50.279Z,17.25
2023-03-25T16:12:51.750Z,12.95
2023-03-25T16:17:53.494Z,17.45
2023-03-25T16:22:56.498Z,11.70
2023-03-25T16:28:01.576Z,11.98
2023-03-25T16:33:10.455Z,15.00
2023-03-25T16:38:17.542Z,16.80
2023-03-25T16:43:21.299Z,15.68
2023-03-25T16:48:25.498Z,17.30
2023-03-25T16:53:27.405Z,14.43
2023-03-25T16:58:29.157Z,17.85
2023-03-25T17:03:39.502Z,16.80
2023-03-25T17:08:40.937Z,11.85
2023-03-25T17:13:44.561Z,12.35
2023-03-25T17:18:47.731Z,14.80
2023-03-25T17:23:49.527Z,10.30
2023-03-25T17:28:50.889Z,12.23
2023-03-25T17:33:53.223Z,14.43
2023-03-25T17:38:55.897Z,19.42
2023-03-25T17:43:57.732Z,8.43
2023-03-25T17:48:59.972Z,13.90
2023-03-25T17:54:01.491Z,11.63
2023-03-25T17:59:04.571Z,11.57
2023-03-25T18:04:06.249Z,15.05
2023-03-25T18:09:14.711Z,10.63
2023-03-25T18:14:16.454Z,16.40
2023-03-25T18:19:19.352Z,12.35
2023-03-25T18:24:21.299Z,17.92
2023-03-25T18:29:24.489Z,14.68
2023-03-25T18:34:26.156Z,19.45
2023-03-25T18:39:28.114Z,17.85
2023-03-25T18:44:30.786Z,12.88
2023-03-25T18:49:32.373Z,14.68
2023-03-25T18:54:33.777Z,15.52
2023-03-25T18:59:35.478Z,15.30
2023-03-25T19:04:37.997Z,17.30
2023-03-25T19:09:40.322Z,18.20
2023-03-25T19:14:41.789Z,11.02
2023-03-25T19:19:43.297Z,17.42
2023-03-25T19:24:44.767Z,22.83
2023-03-25T19:29:46.795Z,22.83
2023-03-25T19:34:51.733Z,13.88
2023-03-25T19:39:54.886Z,14.48
2023-03-25T19:44:58.540Z,17.60
2023-03-25T19:50:00.327Z,12.63
2023-03-25T19:55:01.726Z,11.20
2023-03-25T20:00:09.882Z,16.67
2023-03-25T20:05:11.957Z,17.75
2023-03-25T20:10:20.133Z,14.20
2023-03-25T20:15:23.238Z,11.93
2023-03-25T20:20:24.959Z,11.90
2023-03-25T20:25:26.622Z,13.48
2023-03-25T20:30:28.243Z,14.05
2023-03-25T20:35:30.534Z,9.57
2023-03-25T20:40:43.522Z,12.60
2023-03-25T20:45:45.994Z,14.75
2023-03-25T20:50:47.546Z,15.07
2023-03-25T20:55:49.041Z,11.82
2023-03-25T21:00:50.694Z,8.18
2023-03-25T21:05:56.348Z,10.32
2023-03-25T21:10:58.469Z,10.07
2023-03-25T21:16:01.471Z,12.13
2023-03-25T21:21:03.643Z,11.43
2023-03-25T21:26:09.499Z,10.93
2023-03-25T21:31:16.968Z,11.15
2023-03-25T21:36:23.006Z,8.93
2023-03-25T21:41:25.015Z,10.13
2023-03-25T21:46:27.664Z,11.98
2023-03-25T21:51:35.843Z,9.98
2023-03-25T21:56:40.751Z,13.30
2023-03-25T22:01:42.554Z,13.45
2023-03-25T22:06:44.307Z,11.73
2023-03-25T22:11:45.807Z,10.65
2023-03-25T22:16:47.415Z,13.20
2023-03-25T22:21:48.832Z,12.68
2023-03-25T22:26:50.428Z,10.98
2023-03-25T22:31:55.699Z,11.63
2023-03-25T22:36:57.228Z,9.55
2023-03-25T22:41:58.647Z,8.05
2023-03-25T22:47:00.238Z,12.80
2023-03-25T22:52:01.632Z,9.70
2023-03-25T22:57:03.108Z,12.68
2023-03-25T23:02:04.744Z,11.48
2023-03-25T23:07:08.406Z,9.85
2023-03-25T23:12:30.809Z,11.30
2023-03-25T23:17:33.338Z,14.65
2023-03-25T23:22:34.775Z,13.88
2023-03-25T23:27:37.131Z,14.30
2023-03-25T23:32:39.839Z,10.70
2023-03-25T23:37:43.646Z,11.88
2023-03-25T23:42:45.080Z,9.45
2023-03-25T23:47:49.133Z,11.45
2023-03-25T23:52:50.573Z,8.60
2023-03-25T23:57:51.985Z,12.30
